Terminal Aerodrome Forecast
Issued by NWS

Home | Current Version | Previous Version | Text Only | Print | Product List | Glossary On
Versions: 1 2 3 4 5 6 7 8 9 10 11 12 13 14 15 16
960
FTUS43 KSGF 211622 AAA
TAFJLN
TAF AMD
KJLN 211622Z 2116/2212 18016G29KT P6SM SCT030
      TEMPO 2117/2120 BKN030
     FM212100 20023G31KT P6SM BKN030
     FM220000 18015G24KT 6SM -SHRA VCTS OVC035CB
     FM220500 21013G20KT P6SM SCT100
     FM221000 24013KT P6SM BKN025=

USA.gov is the U.S. government's official web portal to all federal, state and local government web resources and services.